This demonstration page uses our WeatherBlox Daily Observations layout. Learn more.

36.17497, -115.13722

Hourly Observations for September 13, 2018

Temp ( °F °C ) Dew Point ( °F °C ) Humidity (%) Winds ( mph kmh ) Pressure ( in mb ) Visibility ( mi km ) Precip ( " mm )
12:53 am 00:53 Clear 81 27.2 26 -3.3 13 13 SSE 9 15 29.74 1007 10 16.09344 0 0
1:53 am 01:53 Clear 79 26.1 26 -3.3 14 14 S 9 15 29.74 1007 10 16.09344 0 0
2:53 am 02:53 Clear 78 25.6 27 -2.8 15 15 S 10 17 29.74 1007 10 16.09344 0 0
3:53 am 03:53 Clear 78 25.6 28 -2.2 16 16 S 20 31 29.74 1007 10 16.09344 0 0
4:53 am 04:53 Clear 78 25.6 29 -1.7 16 16 S 16 26 29.74 1007 10 16.09344 0 0
5:53 am 05:53 Clear 77 25 30 -1.1 18 18 S 15 24 29.77 1008 10 16.09344 0 0
6:53 am 06:53 Sunny 77 25 30 -1.1 18 18 S 18 30 29.77 1008 10 16.09344 0 0
7:53 am 07:53 Sunny 82 27.8 25 -3.9 12 12 S 18 30 29.8 1009 10 16.09344 0 0
8:53 am 08:53 Sunny 85 29.4 25 -3.9 11 11 S 15 24 29.83 1010 10 16.09344 0 0
9:53 am 09:53 Sunny 89 31.7 19 -7.2 7 7 S 18 30 29.83 1010 10 16.09344 0 0
10:53 am 10:53 Sunny 91 32.8 17 -8.3 6 6 SSW 14 22 29.83 1010 10 16.09344 0 0
11:53 am 11:53 Sunny 92 33.3 19 -7.2 7 7 SW 22 35 29.83 1010 10 16.09344 0 0
12:53 pm 12:53 Sunny 94 34.4 16 -8.9 6 6 SW 21 33 29.8 1009 10 16.09344 0 0
1:53 pm 13:53 Sunny 95 35 17 -8.3 6 6 WSW 14 22 29.8 1009 10 16.09344 0 0
2:53 pm 14:53 Sunny 96 35.6 19 -7.2 6 6 WSW 20 31 29.8 1009 10 16.09344 0 0
3:53 pm 15:53 Sunny 95 35 19 -7.2 6 6 SW 18 30 29.77 1008 10 16.09344 0 0
4:53 pm 16:53 Sunny 95 35 20 -6.7 6 6 WSW 13 20 29.77 1008 10 16.09344 0 0
5:53 pm 17:53 Sunny 94 34.4 17 -8.3 6 6 SW 13 20 29.77 1008 10 16.09344 0 0
6:53 pm 18:53 Clear 91 32.8 21 -6.1 8 8 SSW 14 22 29.8 1009 10 16.09344 0 0
7:53 pm 19:53 Clear 89 31.7 23 -5 9 9 SW 16 26 29.8 1009 10 16.09344 0 0
8:53 pm 20:53 Clear 87 30.6 24 -4.4 10 10 SSW 13 20 29.8 1009 10 16.09344 0 0
9:53 pm 21:53 Clear 87 30.6 25 -3.9 10 10 SSW 8 13 29.8 1009 10 16.09344 0 0
10:53 pm 22:53 Clear 83 28.3 25 -3.9 12 12 S 6 9 29.83 1010 10 16.09344 0 0
11:53 pm 23:53 Clear 84 28.9 25 -3.9 11 11 SSW 9 15 29.83 1010 10 16.09344 0 0

Powered by AerisWeather